Time;durP1;ratioP1;P1;durP2;ratioP2;P2;SDS_P1;SDS_P2;PMS_P1;PMS_P2;Temp;Humidity;BMP_temperature;BMP_pressure;BME280_temperature;BME280_humidity;BME280_pressure;Samples;Min_cycle;Max_cycle;Signal;HPM_P1;HPM_P2
2023/04/26 00:01:41;;;;;;;13.63;5.28;;;9.00;93.90;;;;;;4147496;28;20109;-54
2023/04/26 00:03:43;;;;;;;11.63;5.38;;;9.00;93.90;;;;;;4147801;28;20116;-55
2023/04/26 00:05:46;;;;;;;14.15;5.30;;;9.00;94.10;;;;;;4148198;28;20058;-51
2023/04/26 00:07:49;;;;;;;21.30;6.13;;;9.00;94.20;;;;;;4148022;28;20050;-55
2023/04/26 00:09:53;;;;;;;12.40;5.65;;;9.00;94.20;;;;;;4147153;28;20052;-54
2023/04/26 00:11:54;;;;;;;13.90;5.97;;;8.90;94.50;;;;;;4147856;28;20080;-54
2023/04/26 00:13:57;;;;;;;12.25;5.35;;;9.00;94.60;;;;;;4147922;28;20186;-55
2023/04/26 00:16:02;;;;;;;10.40;5.75;;;9.00;94.70;;;;;;4147734;28;20046;-54
2023/04/26 00:18:06;;;;;;;14.15;6.18;;;9.00;94.70;;;;;;4147600;28;20057;-51
2023/04/26 00:20:10;;;;;;;14.18;5.80;;;9.00;94.50;;;;;;4129455;28;20066;-55
2023/04/26 00:22:12;;;;;;;11.05;6.03;;;9.00;94.40;;;;;;4147869;28;20145;-54
2023/04/26 00:24:15;;;;;;;14.30;6.05;;;9.00;94.40;;;;;;4130613;28;20072;-55
2023/04/26 00:26:17;;;;;;;16.67;6.93;;;9.00;94.40;;;;;;4147897;28;20050;-55
2023/04/26 00:28:19;;;;;;;11.20;6.10;;;9.00;94.20;;;;;;4147553;28;20058;-55
2023/04/26 00:30:21;;;;;;;11.02;6.28;;;8.90;94.10;;;;;;4146851;28;20050;-55
2023/04/26 00:32:23;;;;;;;18.60;6.30;;;8.90;94.40;;;;;;4161498;28;20484;-54
2023/04/26 00:34:33;;;;;;;23.35;7.30;;;8.80;94.40;;;;;;4163792;28;20053;-53
2023/04/26 00:36:35;;;;;;;14.75;6.35;;;8.70;94.50;;;;;;4164064;28;20049;-55
2023/04/26 00:38:37;;;;;;;16.35;7.18;;;8.70;94.60;;;;;;4163316;28;20411;-53
2023/04/26 00:40:39;;;;;;;16.05;7.22;;;8.60;94.80;;;;;;4163141;28;20194;-55
2023/04/26 00:42:41;;;;;;;21.10;6.22;;;8.60;94.80;;;;;;4163693;28;20095;-54
2023/04/26 00:44:43;;;;;;;18.40;6.40;;;8.70;95.10;;;;;;4163885;28;20064;-54
2023/04/26 00:46:45;;;;;;;14.45;6.30;;;8.70;95.10;;;;;;4145824;28;20052;-55
2023/04/26 00:48:50;;;;;;;13.13;6.07;;;8.60;95.10;;;;;;4163953;28;20107;-54
2023/04/26 00:50:54;;;;;;;16.30;6.82;;;8.60;95.20;;;;;;4162633;28;20054;-54
2023/04/26 00:52:57;;;;;;;14.85;6.80;;;8.60;95.20;;;;;;4163968;28;20049;-54
2023/04/26 00:55:00;;;;;;;14.90;6.40;;;8.60;95.30;;;;;;4163780;28;20045;-54
2023/04/26 00:57:02;;;;;;;15.02;6.47;;;8.60;95.20;;;;;;4164003;28;20056;-54
2023/04/26 00:59:04;;;;;;;13.25;6.07;;;8.50;95.30;;;;;;4163771;28;20442;-54
2023/04/26 01:01:06;;;;;;;17.55;6.63;;;8.50;95.40;;;;;;4162466;28;20046;-54
2023/04/26 01:03:09;;;;;;;14.77;6.43;;;8.50;95.30;;;;;;4163866;28;20046;-54
2023/04/26 01:05:12;;;;;;;14.20;7.55;;;8.50;95.40;;;;;;4163967;28;20407;-55
2023/04/26 01:07:19;;;;;;;22.15;8.27;;;8.50;95.40;;;;;;4163619;28;20041;-55
2023/04/26 01:09:21;;;;;;;13.77;8.48;;;8.40;95.50;;;;;;4163599;28;20053;-55
2023/04/26 01:11:24;;;;;;;22.02;8.55;;;8.40;95.50;;;;;;4162678;28;20498;-54
2023/04/26 01:13:27;;;;;;;14.50;6.90;;;8.50;95.50;;;;;;4163930;28;20092;-55
2023/04/26 01:15:29;;;;;;;14.68;6.25;;;8.50;95.50;;;;;;4163202;28;20125;-54
2023/04/26 01:17:31;;;;;;;16.83;6.30;;;8.40;95.40;;;;;;4163504;28;20053;-54
2023/04/26 01:19:36;;;;;;;9.88;5.40;;;8.30;95.50;;;;;;4155063;28;20096;-54
2023/04/26 01:21:39;;;;;;;12.70;5.18;;;8.30;95.50;;;;;;4146114;28;20104;-55
2023/04/26 01:23:42;;;;;;;13.38;4.97;;;8.30;95.50;;;;;;4147382;28;20060;-54
2023/04/26 01:25:44;;;;;;;10.85;4.57;;;8.30;95.30;;;;;;4147088;28;20129;-55
2023/04/26 01:27:46;;;;;;;10.82;5.03;;;8.30;95.40;;;;;;4146846;28;20050;-55
2023/04/26 01:29:49;;;;;;;14.98;4.65;;;8.20;95.40;;;;;;4147197;28;20124;-53
2023/04/26 01:31:54;;;;;;;10.90;4.15;;;8.20;95.50;;;;;;4156743;28;20049;-54
2023/04/26 01:33:56;;;;;;;11.32;4.53;;;8.20;95.60;;;;;;4163537;28;20088;-55
2023/04/26 01:35:58;;;;;;;14.07;4.95;;;8.20;95.50;;;;;;4163466;28;20413;-54
2023/04/26 01:38:00;;;;;;;9.18;4.88;;;8.20;95.50;;;;;;4164373;28;20052;-55
2023/04/26 01:40:08;;;;;;;9.80;4.57;;;8.10;95.50;;;;;;4163601;28;20487;-54
2023/04/26 01:42:10;;;;;;;11.88;4.68;;;8.10;95.60;;;;;;4163791;28;20112;-53
2023/04/26 01:44:13;;;;;;;15.25;4.38;;;8.10;95.60;;;;;;4163468;28;20056;-54
2023/04/26 01:46:15;;;;;;;13.30;4.65;;;8.00;95.60;;;;;;4163485;28;20101;-55
2023/04/26 01:48:17;;;;;;;10.70;4.45;;;8.00;95.70;;;;;;4163655;28;20445;-53
2023/04/26 01:50:19;;;;;;;11.48;4.53;;;8.00;95.80;;;;;;4162638;28;20046;-55
2023/04/26 01:52:22;;;;;;;12.57;4.78;;;8.00;95.90;;;;;;4166224;28;20055;-55
2023/04/26 01:54:24;;;;;;;9.35;4.68;;;8.00;95.80;;;;;;4166526;28;20399;-54
2023/04/26 01:56:30;;;;;;;12.88;5.40;;;7.90;95.90;;;;;;4166438;28;20046;-54
2023/04/26 01:58:32;;;;;;;8.93;4.85;;;7.80;96.10;;;;;;4148430;28;20046;-53
2023/04/26 02:00:34;;;;;;;13.73;5.07;;;7.80;96.10;;;;;;4165420;28;20052;-54
2023/04/26 02:02:36;;;;;;;11.93;4.22;;;7.80;96.10;;;;;;4166338;28;20056;-54
2023/04/26 02:04:38;;;;;;;12.10;4.43;;;7.90;96.10;;;;;;4166472;28;20148;-54
2023/04/26 02:06:41;;;;;;;13.48;4.43;;;7.80;96.40;;;;;;4166550;28;20048;-54
2023/04/26 02:08:44;;;;;;;13.02;4.63;;;7.80;96.10;;;;;;4166231;28;20069;-54
2023/04/26 02:10:47;;;;;;;17.25;4.97;;;7.80;96.10;;;;;;4165368;28;20050;-54
2023/04/26 02:12:50;;;;;;;10.20;4.60;;;7.80;96.20;;;;;;4165694;28;20061;-53
2023/04/26 02:14:52;;;;;;;12.63;4.50;;;7.70;95.90;;;;;;4166370;28;20147;-54
2023/04/26 02:16:55;;;;;;;11.43;4.30;;;7.70;96.10;;;;;;4166242;28;20041;-54
2023/04/26 02:18:58;;;;;;;13.65;4.65;;;7.80;96.10;;;;;;4162676;28;20034;-54
2023/04/26 02:21:00;;;;;;;15.77;4.93;;;7.80;96.00;;;;;;4148569;28;20259;-54
2023/04/26 02:23:02;;;;;;;13.60;4.00;;;7.70;96.20;;;;;;4149693;28;20046;-53
2023/04/26 02:25:05;;;;;;;14.68;4.72;;;7.70;96.20;;;;;;4149856;28;20056;-53
2023/04/26 02:27:07;;;;;;;13.88;4.40;;;7.80;96.10;;;;;;4149254;28;20058;-54
2023/04/26 02:29:11;;;;;;;16.83;4.63;;;7.70;96.00;;;;;;4149308;28;20077;-54
2023/04/26 02:31:13;;;;;;;13.30;5.13;;;7.70;96.20;;;;;;4153082;28;20038;-54
2023/04/26 02:33:15;;;;;;;14.25;5.20;;;7.80;96.20;;;;;;4165843;28;20077;-53
2023/04/26 02:35:19;;;;;;;15.82;4.90;;;7.80;96.20;;;;;;4166005;28;20196;-52
2023/04/26 02:37:21;;;;;;;10.35;4.38;;;7.90;96.10;;;;;;4165914;28;20045;-53
2023/04/26 02:39:23;;;;;;;13.93;4.80;;;7.80;95.90;;;;;;4165813;28;20042;-54
2023/04/26 02:41:26;;;;;;;10.13;4.40;;;7.80;95.90;;;;;;4165034;28;20045;-53
2023/04/26 02:43:28;;;;;;;17.40;5.28;;;7.90;95.70;;;;;;4165181;28;20510;-53
2023/04/26 02:45:31;;;;;;;7.68;3.95;;;7.70;95.50;;;;;;4165747;28;20045;-54
2023/04/26 02:47:35;;;;;;;12.68;4.50;;;7.70;95.80;;;;;;4165874;28;20049;-54
2023/04/26 02:49:37;;;;;;;15.30;5.22;;;7.80;95.80;;;;;;4165623;28;20124;-54
2023/04/26 02:51:40;;;;;;;13.75;4.90;;;7.80;95.70;;;;;;4164635;28;20060;-54
2023/04/26 02:53:42;;;;;;;12.40;4.97;;;7.70;95.80;;;;;;4165401;28;20064;-54
2023/04/26 02:55:45;;;;;;;16.45;5.20;;;7.60;96.10;;;;;;4165583;28;20058;-53
2023/04/26 02:57:48;;;;;;;19.35;4.75;;;7.70;95.80;;;;;;4165059;28;20124;-54
2023/04/26 02:59:50;;;;;;;9.88;4.70;;;7.70;95.90;;;;;;4165547;28;20049;-55
2023/04/26 03:01:53;;;;;;;20.65;5.43;;;7.70;95.80;;;;;;4163754;28;20046;-53
2023/04/26 03:03:55;;;;;;;14.43;5.03;;;7.80;95.80;;;;;;4165733;28;20049;-54
2023/04/26 03:05:57;;;;;;;14.13;4.28;;;7.80;95.90;;;;;;4165668;28;20073;-53
2023/04/26 03:08:00;;;;;;;15.05;4.82;;;7.80;96.20;;;;;;4165497;28;20176;-55
2023/04/26 03:10:04;;;;;;;21.48;5.80;;;7.80;96.00;;;;;;4165304;28;20049;-54
2023/04/26 03:12:06;;;;;;;10.82;3.92;;;7.80;95.80;;;;;;4164084;28;20049;-54
2023/04/26 03:14:08;;;;;;;16.30;5.25;;;7.90;96.10;;;;;;4165353;28;20069;-55
2023/04/26 03:16:10;;;;;;;11.73;4.68;;;7.90;95.60;;;;;;4165475;28;20434;-53
2023/04/26 03:18:14;;;;;;;14.85;4.88;;;7.80;95.70;;;;;;4165067;28;20057;-54
2023/04/26 03:20:16;;;;;;;14.50;4.55;;;7.90;95.80;;;;;;4150752;28;20052;-54
2023/04/26 03:22:18;;;;;;;16.55;4.70;;;7.90;95.60;;;;;;4148444;28;20092;-57
2023/04/26 03:24:20;;;;;;;14.35;4.65;;;7.90;95.40;;;;;;4149083;28;20563;-55
2023/04/26 03:26:23;;;;;;;12.55;4.32;;;7.90;95.40;;;;;;4147789;28;20044;-55
2023/04/26 03:28:28;;;;;;;12.10;4.88;;;7.90;95.50;;;;;;4141719;28;20054;-53
2023/04/26 03:30:30;;;;;;;12.23;4.57;;;7.80;95.50;;;;;;4147897;28;20046;-54
2023/04/26 03:32:32;;;;;;;11.70;4.38;;;7.80;95.50;;;;;;4148266;28;20097;-54
2023/04/26 03:34:35;;;;;;;15.55;4.50;;;7.70;95.60;;;;;;4140918;28;20077;-58
2023/04/26 03:36:37;;;;;;;12.88;4.80;;;7.80;95.90;;;;;;4148713;28;20054;-53
2023/04/26 03:38:39;;;;;;;11.52;4.63;;;7.90;95.50;;;;;;4148862;28;20048;-55
2023/04/26 03:40:41;;;;;;;9.50;4.50;;;7.80;95.50;;;;;;4149123;28;20049;-53
2023/04/26 03:42:43;;;;;;;10.20;4.28;;;7.80;95.70;;;;;;4151676;28;20042;-61
2023/04/26 03:44:46;;;;;;;19.45;5.65;;;7.90;95.70;;;;;;4152300;28;20054;-57
2023/04/26 03:46:48;;;;;;;18.83;6.05;;;8.00;95.60;;;;;;4134005;28;20102;-55
2023/04/26 03:48:50;;;;;;;11.65;4.63;;;7.90;95.60;;;;;;4151319;28;20048;-55
2023/04/26 03:50:54;;;;;;;14.52;4.97;;;7.90;95.30;;;;;;4150905;28;20046;-54
2023/04/26 03:52:56;;;;;;;12.50;4.82;;;7.90;95.40;;;;;;4151002;28;20048;-55
2023/04/26 03:54:59;;;;;;;14.93;4.57;;;7.80;95.30;;;;;;4132854;28;20053;-56
2023/04/26 03:57:01;;;;;;;14.00;4.82;;;7.90;95.40;;;;;;4151022;28;20439;-59
2023/04/26 03:59:03;;;;;;;12.68;5.07;;;7.90;95.50;;;;;;4150809;28;20098;-54
2023/04/26 04:01:06;;;;;;;15.10;4.50;;;8.00;95.50;;;;;;4148568;28;20478;-54
2023/04/26 04:03:11;;;;;;;20.30;5.28;;;8.10;95.30;;;;;;4150012;28;20053;-53
2023/04/26 04:05:13;;;;;;;15.38;4.85;;;8.10;95.30;;;;;;4150669;28;20499;-63
2023/04/26 04:07:18;;;;;;;14.15;5.20;;;8.10;95.10;;;;;;4132906;28;20050;-56
2023/04/26 04:09:20;;;;;;;22.92;4.93;;;8.10;95.40;;;;;;4149672;28;20049;-53
2023/04/26 04:11:22;;;;;;;12.13;5.00;;;8.00;95.40;;;;;;4147375;28;20104;-57
2023/04/26 04:13:24;;;;;;;15.10;5.43;;;8.00;95.60;;;;;;4147541;28;20045;-53
2023/04/26 04:15:26;;;;;;;10.13;4.75;;;8.00;95.50;;;;;;4130871;28;20105;-53
2023/04/26 04:17:28;;;;;;;13.93;4.78;;;8.00;95.20;;;;;;4148021;28;20049;-53
2023/04/26 04:19:31;;;;;;;10.20;4.65;;;8.00;95.10;;;;;;4148062;28;20462;-53
2023/04/26 04:21:33;;;;;;;17.83;4.88;;;8.10;95.40;;;;;;4129660;28;20048;-53
2023/04/26 04:23:36;;;;;;;17.92;4.90;;;8.10;95.40;;;;;;4148030;28;20049;-54
2023/04/26 04:25:38;;;;;;;12.90;5.18;;;8.10;95.20;;;;;;4147802;28;20450;-54
2023/04/26 04:27:42;;;;;;;15.45;5.30;;;8.10;95.00;;;;;;4146696;28;20046;-54
2023/04/26 04:29:45;;;;;;;10.40;3.70;;;8.00;95.10;;;;;;4130463;28;20097;-53
2023/04/26 04:31:47;;;;;;;11.52;5.00;;;8.00;95.00;;;;;;4121798;28;20082;-54
2023/04/26 04:33:49;;;;;;;11.93;4.88;;;7.90;95.40;;;;;;4147479;28;20499;-52
2023/04/26 04:35:51;;;;;;;10.95;4.90;;;8.00;95.30;;;;;;4147606;28;20135;-54
2023/04/26 04:37:55;;;;;;;14.73;5.03;;;8.00;95.10;;;;;;4147272;28;20153;-54
2023/04/26 04:39:58;;;;;;;15.67;5.73;;;8.00;95.10;;;;;;4147631;28;20056;-54
2023/04/26 04:42:00;;;;;;;13.52;4.47;;;8.10;95.10;;;;;;4146865;28;20964;-55
2023/04/26 04:44:03;;;;;;;13.43;5.18;;;8.00;95.20;;;;;;4147392;28;20108;-53
2023/04/26 04:46:05;;;;;;;13.82;4.88;;;8.00;95.20;;;;;;4149080;28;20415;-54
2023/04/26 04:48:07;;;;;;;19.27;6.05;;;7.90;95.40;;;;;;4148861;28;20048;-58
2023/04/26 04:50:10;;;;;;;16.02;5.47;;;8.00;95.20;;;;;;4148061;28;20096;-53
2023/04/26 04:52:12;;;;;;;12.77;5.82;;;8.00;95.10;;;;;;4146632;28;20384;-54
2023/04/26 04:54:15;;;;;;;12.02;4.57;;;8.00;95.40;;;;;;4147697;28;20250;-53
2023/04/26 04:56:19;;;;;;;13.77;5.32;;;7.90;95.20;;;;;;4147740;28;20073;-53
2023/04/26 04:58:21;;;;;;;16.88;4.90;;;7.90;95.30;;;;;;4147527;28;20050;-54
2023/04/26 05:00:23;;;;;;;12.80;4.90;;;8.00;95.20;;;;;;4146875;28;20137;-54
2023/04/26 05:02:25;;;;;;;17.38;5.60;;;8.00;95.20;;;;;;4129794;28;20142;-54
2023/04/26 05:04:28;;;;;;;13.85;5.38;;;8.00;95.10;;;;;;4147519;28;20510;-53
2023/04/26 05:06:31;;;;;;;19.25;5.43;;;7.90;95.30;;;;;;4147305;28;20130;-54
2023/04/26 05:08:33;;;;;;;14.95;5.82;;;8.00;95.30;;;;;;4147343;28;20571;-53
2023/04/26 05:10:35;;;;;;;14.90;5.10;;;8.00;95.40;;;;;;4139789;28;20093;-54
2023/04/26 05:12:38;;;;;;;13.15;5.53;;;8.00;95.50;;;;;;4147583;28;20069;-55
2023/04/26 05:14:40;;;;;;;18.30;5.07;;;7.90;95.30;;;;;;4149088;28;20141;-53
2023/04/26 05:16:43;;;;;;;11.68;5.28;;;8.00;95.70;;;;;;4129662;28;20058;-54
2023/04/26 05:18:48;;;;;;;;;;;8.10;95.40;;;;;;4147892;28;20069;-54
2023/04/26 05:20:50;;;;;;;17.17;5.72;;;8.10;95.30;;;;;;4146337;28;20382;-54
2023/04/26 05:22:52;;;;;;;15.32;4.82;;;8.10;95.40;;;;;;4146837;28;20047;-54
2023/04/26 05:24:54;;;;;;;14.18;4.95;;;8.10;96.00;;;;;;4147996;28;20050;-55
2023/04/26 05:26:58;;;;;;;14.85;4.85;;;8.10;95.60;;;;;;4150306;28;20042;-54
2023/04/26 05:29:01;;;;;;;17.67;4.82;;;8.20;95.60;;;;;;4150547;28;20385;-54
2023/04/26 05:31:03;;;;;;;12.05;4.20;;;8.10;95.40;;;;;;4149580;28;20357;-54
2023/04/26 05:33:05;;;;;;;19.13;5.88;;;8.20;95.80;;;;;;4150256;28;20046;-54
2023/04/26 05:35:08;;;;;;;11.95;4.85;;;8.30;95.40;;;;;;4132842;28;20046;-54
2023/04/26 05:37:10;;;;;;;20.00;5.93;;;8.30;95.40;;;;;;4150094;28;20088;-54
2023/04/26 05:39:12;;;;;;;17.95;5.45;;;8.30;95.70;;;;;;4150539;28;20107;-54
2023/04/26 05:41:14;;;;;;;19.48;6.22;;;8.30;95.30;;;;;;4149149;28;20054;-54
2023/04/26 05:43:17;;;;;;;21.38;5.53;;;8.40;95.50;;;;;;4150302;28;20050;-54
2023/04/26 05:45:20;;;;;;;21.48;5.97;;;8.40;95.20;;;;;;4150109;28;20461;-54
2023/04/26 05:47:23;;;;;;;16.52;6.03;;;8.40;95.30;;;;;;4150184;28;20046;-54
2023/04/26 05:49:25;;;;;;;17.50;6.18;;;8.40;95.10;;;;;;4150311;28;20080;-54
2023/04/26 05:51:27;;;;;;;16.52;5.57;;;8.40;95.30;;;;;;4148862;28;20068;-54
2023/04/26 05:53:29;;;;;;;20.73;5.43;;;8.50;95.30;;;;;;4150061;28;20046;-54
2023/04/26 05:55:31;;;;;;;13.57;5.72;;;8.50;95.20;;;;;;4150210;28;20483;-53
2023/04/26 05:57:33;;;;;;;14.35;6.32;;;8.60;95.30;;;;;;4149997;28;20057;-54
2023/04/26 05:59:35;;;;;;;17.60;5.65;;;8.60;95.00;;;;;;4150055;28;20054;-54
2023/04/26 06:01:39;;;;;;;14.05;5.32;;;8.60;95.00;;;;;;4148992;28;20046;-54
2023/04/26 06:03:41;;;;;;;19.52;5.35;;;8.70;94.90;;;;;;4149882;28;20124;-53
2023/04/26 06:05:43;;;;;;;22.88;6.68;;;8.70;95.10;;;;;;4132487;28;20050;-54
2023/04/26 06:07:45;;;;;;;20.27;6.07;;;8.70;94.70;;;;;;4149794;28;20056;-54
2023/04/26 06:09:47;;;;;;;18.67;5.50;;;8.80;94.70;;;;;;4149863;28;20049;-54
2023/04/26 06:11:50;;;;;;;18.25;6.03;;;8.90;94.80;;;;;;4148948;28;20057;-54
2023/04/26 06:13:52;;;;;;;22.15;6.30;;;9.00;94.50;;;;;;4150038;28;20407;-54
2023/04/26 06:15:54;;;;;;;28.52;6.65;;;8.90;94.40;;;;;;4149865;28;20052;-54
2023/04/26 06:17:58;;;;;;;19.08;5.53;;;9.00;94.50;;;;;;4149705;28;20129;-54
2023/04/26 06:20:00;;;;;;;23.52;6.85;;;9.00;94.60;;;;;;4149487;28;20415;-53
2023/04/26 06:22:02;;;;;;;20.90;6.22;;;8.90;94.40;;;;;;4148828;28;20045;-54
2023/04/26 06:24:05;;;;;;;14.52;5.43;;;8.90;94.50;;;;;;4149747;28;20041;-55
2023/04/26 06:26:08;;;;;;;25.02;6.53;;;9.00;94.80;;;;;;4149771;28;20107;-54
2023/04/26 06:28:10;;;;;;;18.88;6.03;;;9.00;94.60;;;;;;4149288;28;20054;-54
2023/04/26 06:30:13;;;;;;;25.95;6.70;;;9.10;94.70;;;;;;4149677;28;20483;-54
2023/04/26 06:32:15;;;;;;;24.70;6.57;;;9.20;94.40;;;;;;4131282;28;20062;-54
2023/04/26 06:34:19;;;;;;;32.95;6.15;;;9.30;94.20;;;;;;4148937;28;20054;-53
2023/04/26 06:36:21;;;;;;;21.00;6.80;;;9.30;94.30;;;;;;4149040;28;20459;-55
2023/04/26 06:38:23;;;;;;;25.40;6.20;;;9.40;94.70;;;;;;4149236;28;20076;-54
2023/04/26 06:40:25;;;;;;;21.00;6.32;;;9.50;94.50;;;;;;4149594;28;20061;-53
2023/04/26 06:42:27;;;;;;;26.17;6.78;;;9.50;93.80;;;;;;4148349;28;20046;-53
2023/04/26 06:44:29;;;;;;;25.50;6.65;;;9.70;93.60;;;;;;4149262;28;20046;-53
2023/04/26 06:46:31;;;;;;;25.58;6.45;;;9.70;93.30;;;;;;4149434;28;20042;-54
2023/04/26 06:48:37;;;;;;;26.60;6.88;;;9.80;93.20;;;;;;4148935;28;20046;-55
2023/04/26 06:50:41;;;;;;;30.10;7.25;;;9.80;93.30;;;;;;4149418;28;20483;-54
2023/04/26 06:52:44;;;;;;;;;;;9.90;93.40;;;;;;4148840;28;20092;-54
2023/04/26 06:54:46;;;;;;;25.98;6.05;;;10.00;92.80;;;;;;4149875;28;19925;-53
2023/04/26 06:56:58;;;;;;;25.48;6.03;;;10.00;93.10;;;;;;4149669;28;20499;-54
2023/04/26 06:59:03;;;;;;;25.02;6.85;;;10.00;92.60;;;;;;4150197;28;20046;-58
2023/04/26 07:01:08;;;;;;;28.83;7.03;;;10.10;92.80;;;;;;4149905;28;20190;-54
2023/04/26 07:03:10;;;;;;;19.25;6.65;;;10.20;92.60;;;;;;4149179;28;20073;-53
2023/04/26 07:05:14;;;;;;;24.42;6.70;;;10.30;92.80;;;;;;4149080;28;20046;-53
2023/04/26 07:07:18;;;;;;;17.27;6.05;;;10.30;92.50;;;;;;4149192;28;20416;-54
2023/04/26 07:09:19;;;;;;;22.35;6.95;;;10.50;92.30;;;;;;4148858;28;20041;-53
2023/04/26 07:11:21;;;;;;;22.80;7.35;;;10.60;92.50;;;;;;4148040;28;20366;-54
2023/04/26 07:13:26;;;;;;;15.63;5.90;;;10.80;92.00;;;;;;4148781;28;20053;-54
2023/04/26 07:15:30;;;;;;;24.73;7.53;;;11.00;91.90;;;;;;4149020;28;20077;-55
2023/04/26 07:17:32;;;;;;;30.05;6.40;;;10.90;91.80;;;;;;4148697;28;20085;-54
2023/04/26 07:19:34;;;;;;;24.05;6.07;;;11.00;91.70;;;;;;4148954;28;20112;-54
2023/04/26 07:21:36;;;;;;;18.88;6.28;;;11.10;91.50;;;;;;4147680;28;20053;-57
2023/04/26 07:23:40;;;;;;;17.27;6.15;;;11.20;91.40;;;;;;4148717;28;20049;-54
2023/04/26 07:25:42;;;;;;;18.63;6.15;;;11.40;92.00;;;;;;4148775;28;20045;-54
2023/04/26 07:27:44;;;;;;;21.90;7.18;;;11.40;91.30;;;;;;4148436;28;20414;-54
2023/04/26 07:29:46;;;;;;;24.10;7.40;;;11.50;91.10;;;;;;4148739;28;20145;-54
2023/04/26 07:31:49;;;;;;;18.92;6.38;;;11.40;90.80;;;;;;4147228;28;20042;-54
2023/04/26 07:33:50;;;;;;;22.05;7.47;;;11.40;91.20;;;;;;4148731;28;20053;-53
2023/04/26 07:35:58;;;;;;;25.88;7.90;;;11.50;91.40;;;;;;4148634;28;20053;-54
2023/04/26 07:38:00;;;;;;;23.15;7.50;;;11.50;91.00;;;;;;4148550;28;20042;-54
2023/04/26 07:40:07;;;;;;;24.75;6.50;;;11.50;90.90;;;;;;4148587;28;20045;-53
2023/04/26 07:42:12;;;;;;;26.83;7.32;;;11.50;91.00;;;;;;4130487;28;20054;-55
2023/04/26 07:44:14;;;;;;;21.15;6.68;;;11.40;90.80;;;;;;4148575;28;20041;-54
2023/04/26 07:46:16;;;;;;;20.35;6.30;;;11.50;90.90;;;;;;4130541;28;20074;-53
2023/04/26 07:48:19;;;;;;;16.40;6.30;;;11.50;90.80;;;;;;4147570;28;20046;-55
2023/04/26 07:50:21;;;;;;;22.13;7.07;;;11.50;91.10;;;;;;4130830;28;20050;-54
2023/04/26 07:52:23;;;;;;;17.67;6.00;;;11.60;91.20;;;;;;4147552;28;20056;-54
2023/04/26 07:54:25;;;;;;;17.50;6.57;;;11.60;91.30;;;;;;4148134;28;20050;-55
2023/04/26 07:56:29;;;;;;;30.20;7.57;;;11.70;91.20;;;;;;4148227;28;20045;-54
2023/04/26 07:58:31;;;;;;;22.48;7.85;;;11.90;90.60;;;;;;4148128;28;20038;-54
2023/04/26 08:00:37;;;;;;;21.30;8.45;;;11.90;90.60;;;;;;4148201;28;20061;-54
2023/04/26 08:02:39;;;;;;;27.48;8.07;;;12.00;90.50;;;;;;4146751;28;20049;-54
2023/04/26 08:04:51;;;;;;;19.58;7.50;;;12.20;90.30;;;;;;4147838;28;20053;-54
2023/04/26 08:06:54;;;;;;;21.20;7.47;;;12.30;89.80;;;;;;4148130;28;20075;-54
2023/04/26 08:08:56;;;;;;;17.63;6.10;;;12.40;90.00;;;;;;4145655;28;20050;-53
2023/04/26 08:10:58;;;;;;;15.52;5.70;;;12.40;90.10;;;;;;4144559;28;20054;-61
2023/04/26 08:13:02;;;;;;;16.65;5.38;;;12.60;89.80;;;;;;4146174;28;20049;-54
2023/04/26 08:15:05;;;;;;;18.63;6.55;;;12.80;90.20;;;;;;4144243;28;20054;-53
2023/04/26 08:17:08;;;;;;;32.63;6.72;;;13.10;88.90;;;;;;4147160;28;20046;-53
2023/04/26 08:21:41;;;;;;;29.90;7.45;;;13.40;88.30;;;;;;4429050;23;20145;-54
2023/04/26 08:23:43;;;;;;;16.45;6.45;;;13.40;87.40;;;;;;4106296;28;20039;-68
2023/04/26 08:25:46;;;;;;;18.80;6.18;;;13.50;87.90;;;;;;4111303;28;20065;-53
2023/04/26 08:27:49;;;;;;;16.30;6.13;;;13.70;87.40;;;;;;4112290;28;20053;-53
2023/04/26 08:29:53;;;;;;;18.90;5.35;;;13.80;86.90;;;;;;4107477;28;20399;-54
2023/04/26 08:31:55;;;;;;;13.77;5.90;;;13.90;87.20;;;;;;4110379;28;20047;-54
2023/04/26 08:33:57;;;;;;;27.30;7.82;;;14.20;86.90;;;;;;4115289;28;20046;-55
2023/04/26 08:36:00;;;;;;;28.50;7.18;;;14.20;85.80;;;;;;4109338;28;20047;-54
2023/04/26 08:38:02;;;;;;;51.58;8.43;;;14.20;84.70;;;;;;4113097;28;20055;-54
2023/04/26 08:40:09;;;;;;;28.48;7.72;;;14.40;85.50;;;;;;4106037;28;20050;-53
2023/04/26 08:42:13;;;;;;;25.08;6.78;;;14.50;83.60;;;;;;4111526;28;20046;-55
2023/04/26 08:44:22;;;;;;;21.77;5.72;;;14.60;84.40;;;;;;4113671;28;20053;-54
2023/04/26 08:46:28;;;;;;;23.65;6.13;;;14.90;84.20;;;;;;4106016;28;20047;-53
2023/04/26 08:48:35;;;;;;;20.70;6.05;;;15.10;83.20;;;;;;4115032;28;20050;-64
2023/04/26 08:50:38;;;;;;;23.92;5.78;;;15.10;83.10;;;;;;4100801;28;20051;-54
2023/04/26 08:52:41;;;;;;;18.30;5.75;;;15.00;83.50;;;;;;4113656;28;20061;-54
2023/04/26 08:54:46;;;;;;;18.38;5.80;;;15.00;81.40;;;;;;4115079;28;20098;-54
2023/04/26 08:56:48;;;;;;;17.65;5.63;;;14.80;80.90;;;;;;4115525;28;20118;-53
2023/04/26 08:58:52;;;;;;;14.60;5.80;;;14.80;80.90;;;;;;4115325;28;20051;-55
2023/04/26 09:00:54;;;;;;;23.13;6.13;;;14.50;83.00;;;;;;4112848;28;20116;-55
2023/04/26 09:03:00;;;;;;;16.52;5.72;;;14.80;82.80;;;;;;4113675;28;20049;-53
2023/04/26 09:05:03;;;;;;;18.77;6.10;;;14.80;82.20;;;;;;4115131;28;20055;-54
2023/04/26 09:07:07;;;;;;;21.55;6.18;;;14.80;81.30;;;;;;4114955;28;20130;-54
2023/04/26 09:09:12;;;;;;;19.15;5.60;;;15.00;80.90;;;;;;4111909;28;20126;-55
2023/04/26 09:11:14;;;;;;;;;;;15.00;80.70;;;;;;4098810;29;20142;-55
2023/04/26 09:13:16;;;;;;;22.40;6.15;;;15.00;80.80;;;;;;4097638;29;19928;-52
2023/04/26 09:15:21;;;;;;;25.15;6.75;;;14.90;82.30;;;;;;4098884;28;20051;-52
2023/04/26 09:17:23;;;;;;;;;;;14.80;80.10;;;;;;4113010;28;20388;-51
2023/04/26 09:19:36;;;;;;;18.27;6.10;;;14.70;79.60;;;;;;4112494;28;20334;-54
2023/04/26 09:21:43;;;;;;;33.83;5.47;;;14.60;79.90;;;;;;4111979;28;20060;-57
2023/04/26 09:23:58;;;;;;;18.88;5.78;;;14.50;80.10;;;;;;4115522;28;20527;-57
2023/04/26 09:26:19;;;;;;;14.10;5.38;;;14.50;79.50;;;;;;4115738;28;20050;-56
2023/04/26 09:28:22;;;;;;;20.90;5.63;;;14.60;80.10;;;;;;4114685;28;20488;-54
2023/04/26 09:30:26;;;;;;;21.88;6.28;;;14.90;81.00;;;;;;4115092;28;20131;-60
2023/04/26 09:32:43;;;;;;;14.82;5.10;;;14.90;81.10;;;;;;4114153;28;20129;-50
2023/04/26 09:34:47;;;;;;;15.45;5.60;;;15.10;79.80;;;;;;4115649;28;20047;-51
2023/04/26 09:36:50;;;;;;;19.58;5.60;;;15.20;79.90;;;;;;4115847;28;20197;-56
2023/04/26 09:38:52;;;;;;;16.13;4.80;;;15.40;79.00;;;;;;4115487;28;20047;-56
2023/04/26 09:40:58;;;;;;;21.50;5.40;;;15.30;79.10;;;;;;4116140;28;20061;-59
2023/04/26 09:43:01;;;;;;;10.57;4.70;;;15.40;78.60;;;;;;4114761;28;20043;-57
2023/04/26 09:45:06;;;;;;;15.35;4.90;;;15.40;79.00;;;;;;4115734;28;20086;-55
2023/04/26 09:47:10;;;;;;;12.15;5.00;;;15.50;78.60;;;;;;4115712;28;20055;-60
2023/04/26 09:49:13;;;;;;;14.98;4.82;;;15.60;78.40;;;;;;4115611;28;20046;-58
2023/04/26 09:51:16;;;;;;;16.35;5.70;;;15.60;78.50;;;;;;4115276;28;20467;-55
2023/04/26 09:53:30;;;;;;;15.15;4.95;;;15.80;79.30;;;;;;4113951;28;20047;-67
2023/04/26 09:55:32;;;;;;;15.57;4.78;;;15.80;76.70;;;;;;4115503;28;20054;-57
2023/04/26 09:57:43;;;;;;;15.35;3.88;;;15.80;76.20;;;;;;4114652;28;20043;-55
2023/04/26 09:59:46;;;;;;;15.15;4.22;;;15.70;75.50;;;;;;4106432;28;20102;-54
2023/04/26 10:01:49;;;;;;;10.18;3.92;;;15.70;75.70;;;;;;4113373;28;20046;-55
2023/04/26 10:03:51;;;;;;;13.82;5.30;;;15.70;77.90;;;;;;4114057;28;20049;-55
2023/04/26 10:05:55;;;;;;;7.97;3.90;;;15.60;77.10;;;;;;4113749;28;20051;-54
2023/04/26 10:07:59;;;;;;;10.98;4.05;;;15.70;77.60;;;;;;4114022;28;20065;-56
2023/04/26 10:10:03;;;;;;;15.27;4.38;;;15.80;76.60;;;;;;4113500;28;20051;-54
2023/04/26 10:12:05;;;;;;;24.13;5.30;;;15.90;76.60;;;;;;4114594;28;20235;-52
2023/04/26 10:14:08;;;;;;;11.98;4.18;;;15.80;76.50;;;;;;4099606;29;20539;-55
2023/04/26 10:16:10;;;;;;;10.20;3.92;;;15.40;75.90;;;;;;4116927;28;20411;-55
2023/04/26 10:18:12;;;;;;;11.98;4.35;;;15.60;76.70;;;;;;4116984;28;20130;-55
2023/04/26 10:20:17;;;;;;;10.13;4.00;;;15.80;76.30;;;;;;4116912;28;20089;-56
2023/04/26 10:22:24;;;;;;;14.98;5.13;;;15.80;75.10;;;;;;4115401;28;20145;-56
2023/04/26 10:24:27;;;;;;;11.77;4.22;;;15.60;75.70;;;;;;4116832;28;20082;-54
2023/04/26 10:26:50;;;;;;;9.95;3.95;;;15.80;77.20;;;;;;4115962;28;20053;-55
2023/04/26 10:28:55;;;;;;;14.18;4.45;;;15.90;75.90;;;;;;4116722;28;20085;-56
2023/04/26 10:31:04;;;;;;;11.23;3.65;;;16.10;76.40;;;;;;4116593;28;20047;-55
2023/04/26 10:33:15;;;;;;;13.88;4.35;;;16.30;76.40;;;;;;4115469;28;20053;-55
2023/04/26 10:35:18;;;;;;;11.55;4.85;;;16.60;75.20;;;;;;4116096;28;20046;-56
2023/04/26 10:37:20;;;;;;;9.40;4.10;;;16.50;75.00;;;;;;4116655;28;20133;-55
2023/04/26 10:39:23;;;;;;;13.80;4.20;;;16.50;75.00;;;;;;4116315;28;20480;-56
2023/04/26 10:41:35;;;;;;;13.43;4.20;;;16.40;74.80;;;;;;4116482;28;20054;-55
2023/04/26 10:43:41;;;;;;;8.68;3.88;;;16.40;75.20;;;;;;4115307;28;20118;-55